createdAt,value
2024-04-06T00:00:56.369Z,965.79
2024-04-06T00:01:56.363Z,965.75
2024-04-06T00:02:56.317Z,965.78
2024-04-06T00:03:56.319Z,965.75
2024-04-06T00:04:56.343Z,965.79
2024-04-06T00:05:56.318Z,965.80
2024-04-06T00:06:56.323Z,965.80
2024-04-06T00:08:06.015Z,965.82
2024-04-06T00:08:56.277Z,965.83
2024-04-06T00:09:56.269Z,965.81
2024-04-06T00:10:56.255Z,965.80
2024-04-06T00:11:56.263Z,965.81
2024-04-06T00:12:56.228Z,965.79
2024-04-06T00:13:56.228Z,965.82
2024-04-06T00:14:56.214Z,965.84
2024-04-06T00:15:56.209Z,965.79
2024-04-06T00:16:56.201Z,965.79
2024-04-06T00:17:56.180Z,965.80
2024-04-06T00:18:56.172Z,965.86
2024-04-06T00:19:56.151Z,965.88
2024-04-06T00:20:56.145Z,965.89
2024-04-06T00:21:56.128Z,965.89
2024-04-06T00:22:56.106Z,965.87
2024-04-06T00:23:56.100Z,965.91
2024-04-06T00:24:56.084Z,965.87
2024-04-06T00:25:56.088Z,965.87
2024-04-06T00:26:56.060Z,965.88
2024-04-06T00:27:56.097Z,965.90
2024-04-06T00:28:56.048Z,965.84
2024-04-06T00:29:56.041Z,965.88
2024-04-06T00:30:56.030Z,965.89
2024-04-06T00:31:56.023Z,965.89
2024-04-06T00:32:56.011Z,965.92
2024-04-06T00:33:56.015Z,965.92
2024-04-06T00:34:55.966Z,965.90
2024-04-06T00:35:55.979Z,965.92
2024-04-06T00:36:55.962Z,965.94
2024-04-06T00:37:55.962Z,965.90
2024-04-06T00:38:55.934Z,965.91
2024-04-06T00:39:56.001Z,965.93
2024-04-06T00:40:55.931Z,965.97
2024-04-06T00:41:55.909Z,965.91
2024-04-06T00:42:55.863Z,965.89
2024-04-06T00:43:55.874Z,965.92
2024-04-06T00:44:55.868Z,965.89
2024-04-06T00:45:55.875Z,965.87
2024-04-06T00:46:55.844Z,965.90
2024-04-06T00:47:55.840Z,965.92
2024-04-06T00:48:55.830Z,965.90
2024-04-06T00:49:55.840Z,965.89
2024-04-06T00:50:55.794Z,965.93
2024-04-06T00:51:55.810Z,965.88
2024-04-06T00:52:55.774Z,965.87
2024-04-06T00:53:55.772Z,965.82
2024-04-06T00:54:55.757Z,965.83
2024-04-06T00:55:55.720Z,965.85
2024-04-06T00:56:55.734Z,965.85
2024-04-06T00:57:55.728Z,965.86
2024-04-06T00:58:55.718Z,965.85
2024-04-06T00:59:55.707Z,965.82
2024-04-06T01:00:55.690Z,965.88
2024-04-06T01:02:04.108Z,965.84
2024-04-06T01:02:55.668Z,965.88
2024-04-06T01:03:55.663Z,965.88
2024-04-06T01:04:55.640Z,965.87
2024-04-06T01:05:55.621Z,965.87
2024-04-06T01:06:55.601Z,965.91
2024-04-06T01:07:55.593Z,965.88
2024-04-06T01:08:55.593Z,965.87
2024-04-06T01:09:55.583Z,965.88
2024-04-06T01:10:55.568Z,965.86
2024-04-06T01:11:55.556Z,965.86
2024-04-06T01:12:55.552Z,965.86
2024-04-06T01:13:55.520Z,965.84
2024-04-06T01:14:55.513Z,965.85
2024-04-06T01:15:55.518Z,965.88
2024-04-06T01:16:55.496Z,965.79
2024-04-06T01:17:55.456Z,965.87
2024-04-06T01:18:55.470Z,965.87
2024-04-06T01:19:55.456Z,965.86
2024-04-06T01:20:55.451Z,965.87
2024-04-06T01:21:55.470Z,965.91
2024-04-06T01:22:55.435Z,965.91
2024-04-06T01:23:55.431Z,965.94
2024-04-06T01:24:55.411Z,965.98
2024-04-06T01:25:55.405Z,965.88
2024-04-06T01:26:55.468Z,965.86
2024-04-06T01:27:55.443Z,965.87
2024-04-06T01:28:55.424Z,965.92
2024-04-06T01:29:55.413Z,965.85
2024-04-06T01:30:55.433Z,965.81
2024-04-06T01:31:55.432Z,965.84
2024-04-06T01:32:55.453Z,965.91
2024-04-06T01:33:55.319Z,965.81
2024-04-06T01:34:55.298Z,965.81
2024-04-06T01:35:55.288Z,965.82
2024-04-06T01:36:55.296Z,965.84
2024-04-06T01:37:55.276Z,965.83
2024-04-06T01:38:55.255Z,965.83
2024-04-06T01:39:55.243Z,965.79
2024-04-06T01:40:55.236Z,965.84
2024-04-06T01:41:55.240Z,965.81
2024-04-06T01:42:55.212Z,965.75
2024-04-06T01:43:55.182Z,965.81
2024-04-06T01:44:55.194Z,965.82
2024-04-06T01:45:55.195Z,965.85
2024-04-06T01:46:55.163Z,965.83
2024-04-06T01:47:55.158Z,965.71
2024-04-06T01:48:55.137Z,965.77
2024-04-06T01:49:55.148Z,965.79
2024-04-06T01:50:55.122Z,965.78
2024-04-06T01:51:55.121Z,965.72
2024-04-06T01:52:55.098Z,965.75
2024-04-06T01:53:55.104Z,965.77
2024-04-06T01:54:55.091Z,965.75
2024-04-06T01:55:55.065Z,965.74
2024-04-06T01:56:55.056Z,965.69
2024-04-06T01:57:55.057Z,965.75
2024-04-06T01:58:55.033Z,965.78
2024-04-06T01:59:55.027Z,965.75
2024-04-06T02:00:55.018Z,965.75
2024-04-06T02:01:54.996Z,965.77
2024-04-06T02:02:54.994Z,965.75
2024-04-06T02:03:54.995Z,965.75
2024-04-06T02:04:54.964Z,965.75
2024-04-06T02:05:54.983Z,965.72
2024-04-06T02:06:54.953Z,965.73
2024-04-06T02:07:54.935Z,965.66
2024-04-06T02:08:54.926Z,965.72
2024-04-06T02:09:54.906Z,965.74
2024-04-06T02:10:54.885Z,965.70
2024-04-06T02:11:54.872Z,965.73
2024-04-06T02:12:54.853Z,965.77
2024-04-06T02:13:54.864Z,965.76
2024-04-06T02:14:54.846Z,965.72
2024-04-06T02:15:54.853Z,965.72
2024-04-06T02:16:54.818Z,965.72
2024-04-06T02:17:54.807Z,965.72
2024-04-06T02:18:54.794Z,965.72
2024-04-06T02:19:54.780Z,965.71
2024-04-06T02:20:54.789Z,965.74
2024-04-06T02:21:54.766Z,965.75
2024-04-06T02:22:54.717Z,965.73
2024-04-06T02:23:54.738Z,965.72
2024-04-06T02:24:54.695Z,965.76
2024-04-06T02:25:54.726Z,965.75
2024-04-06T02:26:54.713Z,965.78
2024-04-06T02:27:54.791Z,965.75
2024-04-06T02:28:54.707Z,965.77
2024-04-06T02:29:54.686Z,965.77
2024-04-06T02:30:54.673Z,965.79
2024-04-06T02:31:54.658Z,965.80
2024-04-06T02:32:54.644Z,965.78
2024-04-06T02:33:54.632Z,965.82
2024-04-06T02:34:54.651Z,965.84
2024-04-06T02:35:54.633Z,965.87
2024-04-06T02:36:54.616Z,965.84
2024-04-06T02:37:54.603Z,965.81
2024-04-06T02:38:54.605Z,965.85
2024-04-06T02:39:54.580Z,965.84
2024-04-06T02:40:54.559Z,965.84
2024-04-06T02:41:54.557Z,965.86
2024-04-06T02:42:54.528Z,965.82
2024-04-06T02:43:54.524Z,965.86
2024-04-06T02:44:54.527Z,965.92
2024-04-06T02:45:54.509Z,965.89
2024-04-06T02:46:54.493Z,965.90
2024-04-06T02:47:54.443Z,965.90
2024-04-06T02:48:54.472Z,965.90
2024-04-06T02:49:54.456Z,965.95
2024-04-06T02:50:54.468Z,965.96
2024-04-06T02:51:54.427Z,965.93
2024-04-06T02:52:54.429Z,965.98
2024-04-06T02:53:54.411Z,965.98
2024-04-06T02:54:54.397Z,965.98
2024-04-06T02:55:54.391Z,966.00
2024-04-06T02:56:54.376Z,965.98
2024-04-06T02:57:54.358Z,966.02
2024-04-06T02:58:54.368Z,966.02
2024-04-06T02:59:54.341Z,966.02
2024-04-06T03:00:54.296Z,966.03
2024-04-06T03:01:54.306Z,966.01
2024-04-06T03:02:54.309Z,966.01
2024-04-06T03:03:54.299Z,965.98
2024-04-06T03:04:54.299Z,966.00
2024-04-06T03:05:54.272Z,965.96
2024-04-06T03:06:54.266Z,965.99
2024-04-06T03:07:54.247Z,965.95
2024-04-06T03:08:54.273Z,965.91
2024-04-06T03:09:54.230Z,965.97
2024-04-06T03:10:54.215Z,965.95
2024-04-06T03:11:54.238Z,965.94
2024-04-06T03:12:54.219Z,965.95
2024-04-06T03:13:54.197Z,965.96
2024-04-06T03:14:54.192Z,965.94
2024-04-06T03:15:54.188Z,965.96
2024-04-06T03:16:54.155Z,965.94
2024-04-06T03:17:54.143Z,965.96
2024-04-06T03:18:54.147Z,965.94
2024-04-06T03:19:54.121Z,965.95
2024-04-06T03:20:54.114Z,965.97
2024-04-06T03:21:54.099Z,965.99
2024-04-06T03:22:54.083Z,965.94
2024-04-06T03:23:54.086Z,966.01
2024-04-06T03:24:54.068Z,966.01
2024-04-06T03:25:54.068Z,966.00
2024-04-06T03:26:54.059Z,965.99
2024-04-06T03:27:54.025Z,965.95
2024-04-06T03:28:54.028Z,965.95
2024-04-06T03:29:54.009Z,965.96
2024-04-06T03:30:54.014Z,965.93
2024-04-06T03:31:53.985Z,965.96
2024-04-06T03:32:53.975Z,965.90
2024-04-06T03:33:53.969Z,965.96
2024-04-06T03:34:53.918Z,965.96
2024-04-06T03:35:53.905Z,965.96
2024-04-06T03:36:53.934Z,966.05
2024-04-06T03:37:53.922Z,965.99
2024-04-06T03:38:53.903Z,965.94
2024-04-06T03:39:53.883Z,965.96
2024-04-06T03:40:53.873Z,965.94
2024-04-06T03:41:53.845Z,965.91
2024-04-06T03:42:53.851Z,965.98
2024-04-06T03:43:53.850Z,965.99
2024-04-06T03:44:53.857Z,965.96
2024-04-06T03:45:53.838Z,965.92
2024-04-06T03:46:53.807Z,965.92
2024-04-06T03:47:53.806Z,965.93
2024-04-06T03:48:53.798Z,966.04
2024-04-06T03:49:53.760Z,965.94
2024-04-06T03:50:53.770Z,965.99
2024-04-06T03:51:53.755Z,965.93
2024-04-06T03:52:53.718Z,965.99
2024-04-06T03:53:53.754Z,965.97
2024-04-06T03:54:53.726Z,966.01
2024-04-06T03:55:53.727Z,966.02
2024-04-06T03:56:53.691Z,965.99
2024-04-06T03:57:53.691Z,966.00
2024-04-06T03:58:53.679Z,966.03
2024-04-06T03:59:53.623Z,966.01
2024-04-06T04:00:53.641Z,966.01
2024-04-06T04:01:53.645Z,966.04
2024-04-06T04:02:53.621Z,966.03
2024-04-06T04:03:53.616Z,966.05
2024-04-06T04:04:53.605Z,966.04
2024-04-06T04:05:53.571Z,966.09
2024-04-06T04:06:53.574Z,966.03
2024-04-06T04:07:53.568Z,966.07
2024-04-06T04:08:53.564Z,966.06
2024-04-06T04:09:53.521Z,966.06
2024-04-06T04:10:53.539Z,966.07
2024-04-06T04:11:53.534Z,966.08
2024-04-06T04:12:53.518Z,966.06
2024-04-06T04:13:53.500Z,966.08
2024-04-06T04:14:53.475Z,966.08
2024-04-06T04:15:53.484Z,966.14
2024-04-06T04:16:53.458Z,966.13
2024-04-06T04:17:53.467Z,966.15
2024-04-06T04:18:53.455Z,966.13
2024-04-06T04:19:53.449Z,966.11
2024-04-06T04:20:53.441Z,966.18
2024-04-06T04:21:53.424Z,966.12
2024-04-06T04:22:53.415Z,966.11
2024-04-06T04:23:53.396Z,966.11
2024-04-06T04:24:53.390Z,966.10
2024-04-06T04:25:53.375Z,966.10
2024-04-06T04:26:53.363Z,966.10
2024-04-06T04:27:53.350Z,966.14
2024-04-06T04:28:53.342Z,966.16
2024-04-06T04:29:53.335Z,966.15
2024-04-06T04:30:53.322Z,966.16
2024-04-06T04:31:53.309Z,966.10
2024-04-06T04:32:53.301Z,966.14
2024-04-06T04:33:53.275Z,966.10
2024-04-06T04:34:53.266Z,966.10
2024-04-06T04:35:53.258Z,966.11
2024-04-06T04:36:53.295Z,966.13
2024-04-06T04:37:53.245Z,966.19
2024-04-06T04:38:53.219Z,966.20
2024-04-06T04:39:53.197Z,966.17
2024-04-06T04:40:53.194Z,966.17
2024-04-06T04:41:53.184Z,966.19
2024-04-06T04:42:53.177Z,966.25
2024-04-06T04:43:53.170Z,966.21
2024-04-06T04:44:53.703Z,966.25
2024-04-06T04:45:53.153Z,966.24
2024-04-06T04:46:53.147Z,966.25
2024-04-06T04:47:53.129Z,966.22
2024-04-06T04:48:53.127Z,966.26
2024-04-06T04:49:53.111Z,966.24
2024-04-06T04:50:53.102Z,966.22
2024-04-06T04:51:53.075Z,966.24
2024-04-06T04:52:53.079Z,966.25
2024-04-06T04:53:53.053Z,966.22
2024-04-06T04:54:53.052Z,966.20
2024-04-06T04:55:53.022Z,966.23
2024-04-06T04:56:53.013Z,966.21
2024-04-06T04:57:53.005Z,966.22
2024-04-06T04:58:52.998Z,966.26
2024-04-06T04:59:52.980Z,966.23
2024-04-06T05:00:52.974Z,966.22
2024-04-06T05:01:52.983Z,966.22
2024-04-06T05:02:52.953Z,966.24
2024-04-06T05:03:52.943Z,966.28
2024-04-06T05:04:52.934Z,966.24
2024-04-06T05:05:52.946Z,966.29
2024-04-06T05:06:52.920Z,966.28
2024-04-06T05:07:52.900Z,966.30
2024-04-06T05:08:52.912Z,966.30
2024-04-06T05:09:52.885Z,966.34
2024-04-06T05:10:52.872Z,966.37
2024-04-06T05:11:52.861Z,966.34
2024-04-06T05:12:52.854Z,966.37
2024-04-06T05:13:52.850Z,966.39
2024-04-06T05:14:52.822Z,966.39
2024-04-06T05:15:52.805Z,966.38
2024-04-06T05:16:52.817Z,966.44
2024-04-06T05:17:52.802Z,966.44
2024-04-06T05:18:52.780Z,966.43
2024-04-06T05:19:52.738Z,966.44
2024-04-06T05:20:52.769Z,966.46
2024-04-06T05:21:52.746Z,966.45
2024-04-06T05:22:52.738Z,966.43
2024-04-06T05:23:52.724Z,966.46
2024-04-06T05:24:52.716Z,966.48
2024-04-06T05:25:52.702Z,966.47
2024-04-06T05:26:52.696Z,966.47
2024-04-06T05:27:52.647Z,966.52
2024-04-06T05:28:52.672Z,966.56
2024-04-06T05:29:52.667Z,966.51
2024-04-06T05:30:52.647Z,966.54
2024-04-06T05:31:52.605Z,966.56
2024-04-06T05:32:52.633Z,966.54
2024-04-06T05:33:52.606Z,966.60
2024-04-06T05:34:52.579Z,966.56
2024-04-06T05:35:52.589Z,966.56
2024-04-06T05:36:52.585Z,966.59
2024-04-06T05:37:52.570Z,966.55
2024-04-06T05:38:52.555Z,966.59
2024-04-06T05:39:52.533Z,966.59
2024-04-06T05:40:52.543Z,966.59
2024-04-06T05:41:52.525Z,966.58
2024-04-06T05:42:52.541Z,966.65
2024-04-06T05:43:52.490Z,966.62
2024-04-06T05:44:52.483Z,966.57
2024-04-06T05:45:52.481Z,966.62
2024-04-06T05:46:55.090Z,966.58
2024-04-06T05:47:52.471Z,966.56
2024-04-06T05:48:52.460Z,966.61
2024-04-06T05:49:52.401Z,966.57
2024-04-06T05:50:52.408Z,966.55
2024-04-06T05:51:52.407Z,966.62
2024-04-06T05:52:52.387Z,966.60
2024-04-06T05:53:52.367Z,966.60
2024-04-06T05:54:52.363Z,966.63
2024-04-06T05:55:52.356Z,966.59
2024-04-06T05:56:52.336Z,966.61
2024-04-06T05:57:52.353Z,966.57
2024-04-06T05:58:52.320Z,966.56
2024-04-06T05:59:52.300Z,966.55
2024-04-06T06:00:52.302Z,966.57
2024-04-06T06:01:52.279Z,966.59
2024-04-06T06:02:52.273Z,966.54
2024-04-06T06:03:52.282Z,966.56
2024-04-06T06:04:52.260Z,966.55
2024-04-06T06:05:52.241Z,966.57
2024-04-06T06:06:52.246Z,966.53
2024-04-06T06:07:52.200Z,966.57
2024-04-06T06:08:52.196Z,966.55
2024-04-06T06:09:52.207Z,966.51
2024-04-06T06:10:52.195Z,966.51
2024-04-06T06:11:52.182Z,966.49
2024-04-06T06:12:52.170Z,966.44
2024-04-06T06:13:52.164Z,966.49
2024-04-06T06:14:52.162Z,966.47
2024-04-06T06:15:52.146Z,966.49
2024-04-06T06:16:52.133Z,966.51
2024-04-06T06:17:52.112Z,966.49
2024-04-06T06:18:52.111Z,966.46
2024-04-06T06:19:52.092Z,966.46
2024-04-06T06:20:52.077Z,966.45
2024-04-06T06:21:52.073Z,966.42
2024-04-06T06:22:52.066Z,966.44
2024-04-06T06:23:52.053Z,966.49
2024-04-06T06:24:52.011Z,966.39
2024-04-06T06:25:52.019Z,966.37
2024-04-06T06:26:52.018Z,966.42
2024-04-06T06:27:52.019Z,966.35
2024-04-06T06:28:51.992Z,966.34
2024-04-06T06:29:51.974Z,966.38
2024-04-06T06:30:51.965Z,966.39
2024-04-06T06:31:51.943Z,966.41
2024-04-06T06:32:51.947Z,966.40
2024-04-06T06:33:51.940Z,966.39
2024-04-06T06:34:51.925Z,966.40
2024-04-06T06:37:53.359Z,966.43
2024-04-06T06:40:51.863Z,966.47
2024-04-06T06:41:51.844Z,966.45
2024-04-06T06:42:51.836Z,966.43
2024-04-06T06:43:51.811Z,966.41
2024-04-06T06:44:51.832Z,966.41
2024-04-06T06:45:51.804Z,966.43
2024-04-06T06:46:51.793Z,966.40
2024-04-06T06:47:51.765Z,966.47
2024-04-06T06:48:51.765Z,966.43
2024-04-06T06:49:51.727Z,966.43
2024-04-06T06:50:51.750Z,966.37
2024-04-06T06:51:51.721Z,966.45
2024-04-06T06:52:51.709Z,966.41
2024-04-06T06:53:51.685Z,966.43
2024-04-06T06:54:51.687Z,966.45
2024-04-06T06:55:51.671Z,966.46
2024-04-06T06:56:51.661Z,966.48
2024-04-06T06:57:51.646Z,966.40
2024-04-06T06:58:51.641Z,966.44
2024-04-06T07:00:51.727Z,966.43
2024-04-06T07:01:51.626Z,966.44
2024-04-06T07:02:51.619Z,966.44
2024-04-06T07:03:51.596Z,966.45
2024-04-06T07:04:51.577Z,966.44
2024-04-06T07:05:51.591Z,966.43
2024-04-06T07:07:51.544Z,966.44
2024-04-06T07:09:51.524Z,966.45
2024-04-06T07:10:51.508Z,966.51
2024-04-06T07:11:51.510Z,966.53
2024-04-06T07:12:51.452Z,966.48
2024-04-06T07:13:51.459Z,966.47
2024-04-06T07:14:51.458Z,966.49
2024-04-06T07:15:51.444Z,966.57
2024-04-06T07:16:51.441Z,966.53
2024-04-06T07:17:51.458Z,966.49
2024-04-06T07:18:51.427Z,966.54
2024-04-06T07:19:51.420Z,966.54
2024-04-06T07:20:51.396Z,966.52
2024-04-06T07:21:51.390Z,966.54
2024-04-06T07:22:51.373Z,966.48
2024-04-06T07:23:51.378Z,966.50
2024-04-06T07:24:51.353Z,966.51
2024-04-06T07:25:51.370Z,966.45
2024-04-06T07:26:51.343Z,966.46
2024-04-06T07:27:51.320Z,966.49
2024-04-06T07:28:51.329Z,966.45
2024-04-06T07:29:51.296Z,966.48
2024-04-06T07:30:51.310Z,966.44
2024-04-06T07:31:51.288Z,966.49
2024-04-06T07:32:52.460Z,966.46
2024-04-06T07:33:51.284Z,966.47
2024-04-06T07:34:51.233Z,966.46
2024-04-06T07:35:51.260Z,966.45
2024-04-06T07:36:51.229Z,966.46
2024-04-06T07:37:51.219Z,966.47
2024-04-06T07:39:51.169Z,966.43
2024-04-06T07:40:51.170Z,966.45
2024-04-06T07:41:51.166Z,966.45
2024-04-06T07:42:51.156Z,966.40
2024-04-06T07:43:51.153Z,966.40
2024-04-06T07:44:51.134Z,966.40
2024-04-06T07:45:51.124Z,966.45
2024-04-06T07:46:51.119Z,966.42
2024-04-06T07:47:51.086Z,966.45
2024-04-06T07:48:51.055Z,966.45
2024-04-06T07:49:51.062Z,966.48
2024-04-06T07:50:51.050Z,966.42
2024-04-06T07:51:51.052Z,966.43
2024-04-06T07:52:53.696Z,966.43
2024-04-06T07:53:51.017Z,966.34
2024-04-06T07:54:51.006Z,966.33
2024-04-06T07:55:51.025Z,966.33
2024-04-06T07:56:50.991Z,966.30
2024-04-06T07:57:50.975Z,966.29
2024-04-06T07:58:50.977Z,966.30
2024-04-06T07:59:54.302Z,966.28
2024-04-06T08:00:50.950Z,966.28
2024-04-06T08:01:50.936Z,966.31
2024-04-06T08:02:50.903Z,966.29
2024-04-06T08:03:50.933Z,966.29
2024-04-06T08:04:50.899Z,966.23
2024-04-06T08:05:50.939Z,966.21
2024-04-06T08:06:50.892Z,966.23
2024-04-06T08:07:50.860Z,966.24
2024-04-06T08:08:50.858Z,966.21
2024-04-06T08:09:50.873Z,966.19
2024-04-06T08:10:50.814Z,966.16
2024-04-06T08:11:50.812Z,966.18
2024-04-06T08:12:50.814Z,966.21
2024-04-06T08:13:50.799Z,966.21
2024-04-06T08:14:50.834Z,966.15
2024-04-06T08:15:50.930Z,966.18
2024-04-06T08:16:50.771Z,966.19
2024-04-06T08:17:50.756Z,966.19
2024-04-06T08:18:50.703Z,966.18
2024-04-06T08:19:50.755Z,966.12
2024-04-06T08:20:50.743Z,966.14
2024-04-06T08:21:50.684Z,966.14
2024-04-06T08:22:50.696Z,966.16
2024-04-06T08:23:50.696Z,966.15
2024-04-06T08:24:50.678Z,966.13
2024-04-06T08:25:50.659Z,966.14
2024-04-06T08:26:50.642Z,966.14
2024-04-06T08:27:50.644Z,966.09
2024-04-06T08:28:50.651Z,966.11
2024-04-06T08:29:50.634Z,966.11
2024-04-06T08:30:50.599Z,966.13
2024-04-06T08:31:50.608Z,966.10
2024-04-06T08:32:50.591Z,966.06
2024-04-06T08:33:50.584Z,966.03
2024-04-06T08:34:50.576Z,966.04
2024-04-06T08:35:50.558Z,966.05
2024-04-06T08:36:50.551Z,966.01
2024-04-06T08:37:50.549Z,966.03
2024-04-06T08:38:50.524Z,966.01
2024-04-06T08:39:50.513Z,966.02
2024-04-06T08:40:50.506Z,966.05
2024-04-06T08:41:50.479Z,966.05
2024-04-06T08:42:50.490Z,966.01
2024-04-06T08:43:50.474Z,966.01
2024-04-06T08:44:50.463Z,965.98
2024-04-06T08:45:50.439Z,965.98
2024-04-06T08:46:50.427Z,965.97
2024-04-06T08:47:50.422Z,965.97
2024-04-06T08:48:50.399Z,965.98
2024-04-06T08:49:50.398Z,965.97
2024-04-06T08:50:50.396Z,965.98
2024-04-06T08:51:50.364Z,965.96
2024-04-06T08:52:50.345Z,965.98
2024-04-06T08:53:50.350Z,965.94
2024-04-06T08:54:50.319Z,965.89
2024-04-06T08:55:50.319Z,965.88
2024-04-06T08:56:50.306Z,965.82
2024-04-06T08:57:50.312Z,965.79
2024-04-06T08:58:50.291Z,965.82
2024-04-06T08:59:50.285Z,965.80
2024-04-06T09:00:50.262Z,965.81
2024-04-06T09:01:50.262Z,965.79
2024-04-06T09:02:50.252Z,965.80
2024-04-06T09:03:50.246Z,965.73
2024-04-06T09:04:50.219Z,965.75
2024-04-06T09:05:50.204Z,965.75
2024-04-06T09:06:50.224Z,965.72
2024-04-06T09:07:50.186Z,965.71
2024-04-06T09:08:50.194Z,965.67
2024-04-06T09:09:50.156Z,965.70
2024-04-06T09:10:50.154Z,965.65
2024-04-06T09:11:50.130Z,965.62
2024-04-06T09:12:50.118Z,965.69
2024-04-06T09:13:50.119Z,965.65
2024-04-06T09:14:50.116Z,965.62
2024-04-06T09:15:50.098Z,965.66
2024-04-06T09:16:50.079Z,965.66
2024-04-06T09:17:50.052Z,965.61
2024-04-06T09:18:50.066Z,965.62
2024-04-06T09:19:50.056Z,965.61
2024-04-06T09:20:50.045Z,965.58
2024-04-06T09:21:50.033Z,965.56
2024-04-06T09:22:50.021Z,965.52
2024-04-06T09:23:50.010Z,965.50
2024-04-06T09:24:49.999Z,965.57
2024-04-06T09:25:49.983Z,965.57
2024-04-06T09:26:49.979Z,965.56
2024-04-06T09:27:49.956Z,965.54
2024-04-06T09:28:49.949Z,965.56
2024-04-06T09:29:49.947Z,965.51
2024-04-06T09:30:49.935Z,965.51
2024-04-06T09:31:49.916Z,965.50
2024-04-06T09:32:49.901Z,965.41
2024-04-06T09:33:49.892Z,965.45
2024-04-06T09:34:49.887Z,965.44
2024-04-06T09:35:49.874Z,965.41
2024-04-06T09:36:49.852Z,965.38
2024-04-06T09:37:49.855Z,965.37
2024-04-06T09:38:49.829Z,965.40
2024-04-06T09:39:49.824Z,965.40
2024-04-06T09:40:49.815Z,965.38
2024-04-06T09:41:49.811Z,965.44
2024-04-06T09:42:49.790Z,965.43
2024-04-06T09:43:49.791Z,965.45
2024-04-06T09:44:49.769Z,965.43
2024-04-06T09:45:49.773Z,965.40
2024-04-06T09:46:49.759Z,965.40
2024-04-06T09:47:49.743Z,965.41
2024-04-06T09:48:49.732Z,965.40
2024-04-06T09:49:49.685Z,965.38
2024-04-06T09:50:49.729Z,965.36
2024-04-06T09:51:49.696Z,965.35
2024-04-06T09:52:49.682Z,965.35
2024-04-06T09:53:49.671Z,965.37
2024-04-06T09:54:49.660Z,965.38
2024-04-06T09:55:49.626Z,965.33
2024-04-06T09:56:49.648Z,965.34
2024-04-06T09:57:49.613Z,965.33
2024-04-06T09:58:49.627Z,965.29
2024-04-06T09:59:49.600Z,965.33
2024-04-06T10:00:49.588Z,965.27
2024-04-06T10:01:49.555Z,965.25
2024-04-06T10:02:49.551Z,965.25
2024-04-06T10:03:49.523Z,965.24
2024-04-06T10:04:49.530Z,965.21
2024-04-06T10:05:49.503Z,965.12
2024-04-06T10:06:49.512Z,965.12
2024-04-06T10:07:49.501Z,965.12
2024-04-06T10:08:49.501Z,965.08
2024-04-06T10:09:49.474Z,965.08
2024-04-06T10:10:49.480Z,965.05
2024-04-06T10:11:49.465Z,965.07
2024-04-06T10:12:49.442Z,965.02
2024-04-06T10:13:49.487Z,965.01
2024-04-06T10:14:49.413Z,965.03
2024-04-06T10:15:49.428Z,965.01
2024-04-06T10:16:49.391Z,964.98
2024-04-06T10:17:49.415Z,964.96
2024-04-06T10:18:49.443Z,964.93
2024-04-06T10:19:49.363Z,964.97
2024-04-06T10:20:49.335Z,964.98
2024-04-06T10:21:49.344Z,964.99
2024-04-06T10:22:49.344Z,964.96
2024-04-06T10:23:49.344Z,965.00
2024-04-06T10:24:49.326Z,964.96
2024-04-06T10:25:49.316Z,964.95
2024-04-06T10:26:49.297Z,964.97
2024-04-06T10:27:49.289Z,964.95
2024-04-06T10:28:49.278Z,964.95
2024-04-06T10:29:49.274Z,964.90
2024-04-06T10:30:49.256Z,964.86
2024-04-06T10:31:49.334Z,964.84
2024-04-06T10:32:49.227Z,964.85
2024-04-06T10:33:49.215Z,964.81
2024-04-06T10:34:51.016Z,964.77
2024-04-06T10:35:49.211Z,964.77
2024-04-06T10:36:49.175Z,964.73
2024-04-06T10:37:49.180Z,964.72
2024-04-06T10:38:49.174Z,964.75
2024-04-06T10:39:49.162Z,964.76
2024-04-06T10:40:49.143Z,964.75
2024-04-06T10:41:49.135Z,964.73
2024-04-06T10:42:49.128Z,964.72
2024-04-06T10:43:49.107Z,964.73
2024-04-06T10:44:49.088Z,964.74
2024-04-06T10:45:49.087Z,964.73
2024-04-06T10:46:49.079Z,964.72
2024-04-06T10:47:49.075Z,964.68
2024-04-06T10:48:49.038Z,964.68
2024-04-06T10:49:49.038Z,964.71
2024-04-06T10:50:49.028Z,964.68
2024-04-06T10:51:49.038Z,964.67
2024-04-06T10:52:49.012Z,964.67
2024-04-06T10:53:49.007Z,964.71
2024-04-06T10:54:48.959Z,964.75
2024-04-06T10:55:48.981Z,964.71
2024-04-06T10:56:48.936Z,964.71
2024-04-06T10:57:48.948Z,964.72
2024-04-06T10:58:48.955Z,964.69
2024-04-06T10:59:48.927Z,964.75
2024-04-06T11:00:48.912Z,964.74
2024-04-06T11:01:48.894Z,964.71
2024-04-06T11:02:48.912Z,964.66
2024-04-06T11:03:48.867Z,964.66
2024-04-06T11:04:48.861Z,964.67
2024-04-06T11:05:48.849Z,964.65
2024-04-06T11:06:48.978Z,964.61
2024-04-06T11:07:48.841Z,964.60
2024-04-06T11:08:48.807Z,964.56
2024-04-06T11:09:48.808Z,964.61
2024-04-06T11:10:48.797Z,964.57
2024-04-06T11:11:48.795Z,964.50
2024-04-06T11:12:48.776Z,964.54
2024-04-06T11:13:48.776Z,964.49
2024-04-06T11:14:48.805Z,964.48
2024-04-06T11:15:48.743Z,964.48
2024-04-06T11:16:48.805Z,964.47
2024-04-06T11:17:48.729Z,964.48
2024-04-06T11:18:49.805Z,964.47
2024-04-06T11:19:48.748Z,964.45
2024-04-06T11:20:48.695Z,964.44
2024-04-06T11:21:48.679Z,964.44
2024-04-06T11:22:48.707Z,964.37
2024-04-06T11:23:48.665Z,964.36
2024-04-06T11:24:48.643Z,964.33
2024-04-06T11:25:48.626Z,964.26
2024-04-06T11:26:48.643Z,964.28
2024-04-06T11:27:48.596Z,964.25
2024-04-06T11:28:48.594Z,964.29
2024-04-06T11:29:48.568Z,964.24
2024-04-06T11:30:48.559Z,964.27
2024-04-06T11:31:48.557Z,964.24
2024-04-06T11:32:48.550Z,964.26
2024-04-06T11:33:48.523Z,964.25
2024-04-06T11:34:48.522Z,964.25
2024-04-06T11:35:48.523Z,964.22
2024-04-06T11:36:48.517Z,964.21
2024-04-06T11:37:48.489Z,964.23
2024-04-06T11:38:48.492Z,964.23
2024-04-06T11:39:48.500Z,964.20
2024-04-06T11:40:48.440Z,964.25
2024-04-06T11:41:48.454Z,964.15
2024-04-06T11:42:48.597Z,964.16
2024-04-06T11:43:48.424Z,964.14
2024-04-06T11:44:48.412Z,964.13
2024-04-06T11:45:48.416Z,964.15
2024-04-06T11:46:48.384Z,964.14
2024-04-06T11:47:48.389Z,964.17
2024-04-06T11:48:48.388Z,964.15
2024-04-06T11:49:48.355Z,964.12
2024-04-06T11:50:48.357Z,964.15
2024-04-06T11:51:48.340Z,964.06
2024-04-06T11:52:48.334Z,964.09
2024-04-06T11:53:51.071Z,964.08
2024-04-06T11:54:48.303Z,964.06
2024-04-06T11:55:48.274Z,964.11
2024-04-06T11:56:48.347Z,964.07
2024-04-06T11:57:48.263Z,964.04
2024-04-06T11:58:48.259Z,963.99
2024-04-06T11:59:48.255Z,964.10
2024-04-06T12:00:48.228Z,964.07
2024-04-06T12:01:48.232Z,963.97
2024-04-06T12:02:48.248Z,964.02
2024-04-06T12:03:48.193Z,964.00
2024-04-06T12:04:48.225Z,964.05
2024-04-06T12:05:48.172Z,963.99
2024-04-06T12:06:48.157Z,963.99
2024-04-06T12:07:48.163Z,963.95
2024-04-06T12:08:48.147Z,964.01
2024-04-06T12:09:48.127Z,964.04
2024-04-06T12:10:48.159Z,964.02
2024-04-06T12:11:48.088Z,964.09
2024-04-06T12:12:48.327Z,964.06
2024-04-06T12:13:48.080Z,963.96
2024-04-06T12:14:48.085Z,963.98
2024-04-06T12:15:48.067Z,963.97
2024-04-06T12:16:48.027Z,964.00
2024-04-06T12:17:48.042Z,963.95
2024-04-06T12:18:48.049Z,963.95
2024-04-06T12:19:48.013Z,963.95
2024-04-06T12:20:48.025Z,963.90
2024-04-06T12:21:48.009Z,963.88
2024-04-06T12:22:47.988Z,963.92
2024-04-06T12:23:47.955Z,963.92
2024-04-06T12:24:47.990Z,963.86
2024-04-06T12:25:47.929Z,963.90
2024-04-06T12:26:47.947Z,963.86
2024-04-06T12:27:47.938Z,963.87
2024-04-06T12:28:47.924Z,963.85
2024-04-06T12:29:47.905Z,963.84
2024-04-06T12:30:47.880Z,963.82
2024-04-06T12:31:47.853Z,963.76
2024-04-06T12:32:47.869Z,963.71
2024-04-06T12:33:47.843Z,963.71
2024-04-06T12:34:47.846Z,963.72
2024-04-06T12:35:47.809Z,963.74
2024-04-06T12:36:47.845Z,963.75